createdAt,value
2023-11-18T00:01:10.054Z,19.40
2023-11-18T00:03:37.705Z,18.00
2023-11-18T00:06:05.323Z,16.90
2023-11-18T00:08:36.894Z,18.40
2023-11-18T00:11:06.723Z,18.08
2023-11-18T00:13:38.632Z,17.60
2023-11-18T00:16:14.667Z,17.35
2023-11-18T00:18:44.141Z,17.70
2023-11-18T00:21:13.560Z,16.85
2023-11-18T00:23:43.546Z,17.83
2023-11-18T00:26:15.228Z,18.33
2023-11-18T00:28:45.642Z,16.48
2023-11-18T00:31:16.220Z,16.65
2023-11-18T00:33:45.484Z,17.08
2023-11-18T00:36:17.199Z,16.60
2023-11-18T00:38:47.739Z,16.65
2023-11-18T00:41:19.294Z,15.98
2023-11-18T00:43:51.604Z,16.95
2023-11-18T00:46:29.657Z,17.15
2023-11-18T00:49:02.029Z,17.00
2023-11-18T00:51:43.190Z,16.40
2023-11-18T00:54:21.744Z,17.08
2023-11-18T00:56:53.079Z,15.90
2023-11-18T00:59:21.449Z,17.38
2023-11-18T01:01:50.536Z,15.88
2023-11-18T01:04:19.338Z,16.20
2023-11-18T01:06:52.331Z,16.50
2023-11-18T01:09:33.324Z,16.13
2023-11-18T01:12:08.263Z,17.38
2023-11-18T01:14:43.383Z,18.48
2023-11-18T01:17:11.318Z,16.65
2023-11-18T01:19:39.176Z,17.63
2023-11-18T01:22:07.170Z,16.48
2023-11-18T01:24:35.115Z,17.30
2023-11-18T01:27:03.084Z,16.67
2023-11-18T01:29:30.547Z,16.88
2023-11-18T01:31:58.262Z,16.42
2023-11-18T01:34:26.831Z,15.57
2023-11-18T01:36:54.444Z,15.32
2023-11-18T01:39:22.452Z,16.27
2023-11-18T01:41:50.669Z,16.27
2023-11-18T01:44:20.891Z,16.15
2023-11-18T01:46:48.702Z,15.00
2023-11-18T01:49:16.228Z,15.82
2023-11-18T01:51:44.939Z,15.15
2023-11-18T01:54:16.748Z,15.43
2023-11-18T01:56:46.139Z,15.73
2023-11-18T01:59:19.323Z,16.13
2023-11-18T02:01:51.512Z,15.65
2023-11-18T02:04:21.537Z,14.88
2023-11-18T02:06:52.848Z,15.45
2023-11-18T02:09:28.487Z,15.95
2023-11-18T02:12:14.485Z,15.27
2023-11-18T02:14:42.377Z,15.85
2023-11-18T02:17:11.881Z,15.95
2023-11-18T02:19:42.132Z,15.20
2023-11-18T02:22:14.002Z,15.32
2023-11-18T02:24:48.081Z,15.73
2023-11-18T02:27:22.296Z,15.27
2023-11-18T02:29:53.207Z,15.48
2023-11-18T02:32:32.743Z,13.95
2023-11-18T02:35:12.768Z,15.45
2023-11-18T02:37:50.525Z,15.80
2023-11-18T02:40:22.586Z,14.55
2023-11-18T02:42:55.750Z,15.20
2023-11-18T02:45:25.683Z,15.82
2023-11-18T02:47:59.703Z,15.73
2023-11-18T02:50:33.300Z,16.25
2023-11-18T02:53:04.501Z,15.00
2023-11-18T02:55:34.176Z,16.00
2023-11-18T02:58:07.046Z,16.00
2023-11-18T03:00:38.076Z,15.82
2023-11-18T03:03:10.700Z,15.90
2023-11-18T03:05:42.443Z,17.10
2023-11-18T03:08:14.656Z,15.75
2023-11-18T03:10:46.173Z,16.50
2023-11-18T03:13:16.828Z,16.65
2023-11-18T03:15:46.437Z,16.95
2023-11-18T03:18:17.326Z,16.80
2023-11-18T03:20:47.211Z,16.02
2023-11-18T03:23:17.047Z,15.63
2023-11-18T03:25:50.795Z,16.88
2023-11-18T03:28:33.198Z,16.92
2023-11-18T03:31:05.697Z,16.05
2023-11-18T03:33:44.759Z,16.40
2023-11-18T03:36:26.856Z,16.67
2023-11-18T03:38:58.882Z,16.45
2023-11-18T03:41:36.723Z,17.35
2023-11-18T03:44:34.495Z,17.42
2023-11-18T03:47:05.484Z,16.38
2023-11-18T03:49:39.524Z,17.40
2023-11-18T03:52:08.616Z,16.83
2023-11-18T03:55:00.801Z,17.25
2023-11-18T03:57:30.277Z,17.00
2023-11-18T03:59:59.889Z,17.58
2023-11-18T04:02:34.781Z,17.15
2023-11-18T04:05:03.947Z,18.10
2023-11-18T04:07:42.193Z,17.63
2023-11-18T04:10:14.179Z,18.05
2023-11-18T04:12:49.139Z,17.40
2023-11-18T04:15:18.815Z,15.98
2023-11-18T04:17:49.330Z,16.38
2023-11-18T04:20:20.400Z,16.08
2023-11-18T04:22:51.084Z,15.05
2023-11-18T04:25:20.911Z,16.13
2023-11-18T04:27:50.681Z,14.40
2023-11-18T04:30:23.474Z,16.48
2023-11-18T04:32:53.870Z,16.70
2023-11-18T04:35:26.642Z,17.17
2023-11-18T04:37:56.270Z,16.20
2023-11-18T04:40:31.919Z,16.73
2023-11-18T04:43:01.684Z,16.23
2023-11-18T04:45:31.623Z,16.15
2023-11-18T04:48:02.297Z,16.83
2023-11-18T04:50:33.099Z,15.98
2023-11-18T04:53:01.339Z,16.42
2023-11-18T04:55:31.806Z,15.40
2023-11-18T04:58:03.972Z,15.63
2023-11-18T05:00:33.881Z,15.68
2023-11-18T05:03:03.555Z,15.45
2023-11-18T05:05:33.709Z,14.77
2023-11-18T05:08:04.779Z,15.68
2023-11-18T05:10:34.206Z,14.90
2023-11-18T05:13:03.978Z,13.95
2023-11-18T05:15:35.943Z,13.88
2023-11-18T05:18:07.796Z,14.65
2023-11-18T05:20:40.259Z,14.30
2023-11-18T05:23:16.120Z,14.45
2023-11-18T05:25:45.659Z,13.82
2023-11-18T05:28:16.576Z,14.30
2023-11-18T05:30:46.009Z,14.02
2023-11-18T05:33:19.060Z,15.20
2023-11-18T05:35:51.705Z,14.10
2023-11-18T05:38:24.125Z,14.13
2023-11-18T05:40:59.833Z,14.52
2023-11-18T05:43:32.888Z,14.40
2023-11-18T05:46:21.259Z,13.45
2023-11-18T05:48:51.332Z,14.07
2023-11-18T05:51:28.143Z,13.45
2023-11-18T05:53:58.348Z,14.25
2023-11-18T05:56:28.249Z,14.10
2023-11-18T05:58:59.279Z,13.68
2023-11-18T06:01:31.310Z,13.05
2023-11-18T06:04:01.297Z,13.45
2023-11-18T06:06:33.350Z,15.30
2023-11-18T06:09:08.141Z,14.90
2023-11-18T06:11:43.252Z,15.00
2023-11-18T06:14:15.181Z,15.73
2023-11-18T06:16:46.105Z,14.93
2023-11-18T06:19:16.409Z,15.32
2023-11-18T06:21:46.477Z,15.32
2023-11-18T06:24:18.001Z,15.85
2023-11-18T06:26:48.689Z,15.40
2023-11-18T06:29:18.271Z,15.18
2023-11-18T06:31:56.058Z,15.13
2023-11-18T06:34:28.886Z,16.15
2023-11-18T06:37:01.743Z,17.13
2023-11-18T06:39:43.049Z,15.23
2023-11-18T06:42:12.699Z,12.68
2023-11-18T06:44:45.480Z,11.57
2023-11-18T06:47:15.866Z,15.85
2023-11-18T06:49:46.461Z,15.73
2023-11-18T06:52:16.864Z,14.52
2023-11-18T06:54:47.050Z,15.77
2023-11-18T06:57:15.801Z,15.38
2023-11-18T06:59:43.859Z,16.58
2023-11-18T07:02:11.643Z,14.40
2023-11-18T07:04:39.763Z,15.60
2023-11-18T07:07:10.153Z,16.08
2023-11-18T07:09:37.502Z,13.98
2023-11-18T07:12:05.341Z,14.73
2023-11-18T07:14:32.798Z,13.77
2023-11-18T07:17:00.444Z,15.07
2023-11-18T07:19:28.476Z,13.80
2023-11-18T07:21:55.812Z,15.07
2023-11-18T07:24:23.171Z,13.98
2023-11-18T07:26:52.133Z,13.82
2023-11-18T07:29:19.851Z,14.77
2023-11-18T07:31:47.395Z,15.20
2023-11-18T07:34:14.770Z,14.30
2023-11-18T07:36:42.835Z,14.30
2023-11-18T07:39:17.094Z,14.23
2023-11-18T07:41:45.412Z,13.77
2023-11-18T07:44:14.355Z,13.73
2023-11-18T07:46:44.026Z,13.38
2023-11-18T07:49:12.751Z,13.82
2023-11-18T07:51:43.397Z,13.30
2023-11-18T07:54:11.938Z,13.38
2023-11-18T07:56:40.670Z,14.65
2023-11-18T07:59:10.116Z,13.77
2023-11-18T08:01:38.636Z,14.23
2023-11-18T08:04:09.112Z,13.85
2023-11-18T08:06:37.353Z,13.80
2023-11-18T08:09:06.054Z,14.30
2023-11-18T08:11:34.897Z,12.27
2023-11-18T08:14:04.345Z,11.77
2023-11-18T08:16:34.333Z,11.40
2023-11-18T08:19:03.874Z,13.25
2023-11-18T08:21:32.183Z,11.27
2023-11-18T08:24:01.358Z,12.98
2023-11-18T08:26:29.595Z,11.20
2023-11-18T08:28:58.637Z,10.35
2023-11-18T08:31:27.007Z,11.48
2023-11-18T08:33:56.604Z,11.25
2023-11-18T08:36:28.234Z,9.15
2023-11-18T08:38:57.941Z,11.98
2023-11-18T08:41:26.425Z,11.48
2023-11-18T08:43:55.267Z,11.35
2023-11-18T08:46:23.368Z,11.25
2023-11-18T08:48:51.347Z,8.73
2023-11-18T08:51:19.229Z,9.38
2023-11-18T08:53:47.182Z,11.38
2023-11-18T08:56:15.624Z,9.15
2023-11-18T08:58:46.518Z,8.95
2023-11-18T09:01:15.617Z,10.38
2023-11-18T09:03:54.068Z,9.68
2023-11-18T09:06:29.929Z,10.27
2023-11-18T09:08:59.600Z,9.70
2023-11-18T09:11:30.601Z,9.75
2023-11-18T09:14:02.329Z,9.10
2023-11-18T09:16:31.571Z,7.97
2023-11-18T09:19:01.070Z,8.43
2023-11-18T09:21:31.178Z,8.63
2023-11-18T09:23:59.529Z,6.53
2023-11-18T09:26:31.873Z,8.25
2023-11-18T09:29:03.365Z,7.28
2023-11-18T09:31:33.153Z,8.40
2023-11-18T09:34:01.508Z,7.75
2023-11-18T09:36:30.378Z,5.95
2023-11-18T09:38:58.698Z,8.10
2023-11-18T09:41:29.160Z,7.35
2023-11-18T09:43:58.761Z,7.43
2023-11-18T09:46:34.636Z,7.72
2023-11-18T09:49:15.909Z,7.22
2023-11-18T09:51:48.239Z,6.88
2023-11-18T09:54:30.651Z,8.07
2023-11-18T09:57:10.621Z,5.80
2023-11-18T09:59:49.089Z,6.97
2023-11-18T10:02:20.080Z,6.78
2023-11-18T10:04:51.337Z,7.00
2023-11-18T10:07:20.408Z,5.38
2023-11-18T10:09:50.070Z,5.20
2023-11-18T10:12:24.907Z,6.00
2023-11-18T10:14:53.367Z,4.82
2023-11-18T10:17:23.273Z,5.68
2023-11-18T10:19:53.715Z,5.47
2023-11-18T10:22:25.209Z,5.20
2023-11-18T10:24:55.627Z,5.35
2023-11-18T10:27:27.017Z,4.43
2023-11-18T10:30:05.362Z,4.70
2023-11-18T10:32:36.975Z,4.35
2023-11-18T10:35:11.010Z,4.20
2023-11-18T10:37:44.551Z,3.38
2023-11-18T10:40:15.011Z,4.13
2023-11-18T10:42:46.020Z,4.75
2023-11-18T10:45:14.338Z,3.85
2023-11-18T10:47:44.364Z,4.38
2023-11-18T10:50:12.019Z,3.83
2023-11-18T10:52:42.409Z,4.00
2023-11-18T10:55:13.838Z,3.60
2023-11-18T10:57:43.872Z,3.55
2023-11-18T11:00:15.596Z,3.85
2023-11-18T11:02:43.442Z,4.07
2023-11-18T11:05:20.837Z,4.20
2023-11-18T11:07:50.919Z,4.63
2023-11-18T11:10:25.999Z,3.13
2023-11-18T11:12:55.767Z,3.95
2023-11-18T11:15:24.879Z,4.18
2023-11-18T11:17:56.299Z,3.97
2023-11-18T11:20:31.369Z,3.30
2023-11-18T11:23:12.587Z,3.90
2023-11-18T11:25:47.763Z,4.03
2023-11-18T11:28:24.588Z,3.97
2023-11-18T11:31:05.329Z,3.95
2023-11-18T11:33:44.839Z,3.72
2023-11-18T11:36:13.815Z,3.70
2023-11-18T11:38:41.137Z,4.40
2023-11-18T11:41:09.961Z,4.38
2023-11-18T11:43:38.056Z,3.45
2023-11-18T11:46:11.831Z,3.30
2023-11-18T11:48:40.164Z,3.65
2023-11-18T11:51:16.128Z,3.65
2023-11-18T11:53:47.642Z,3.90
2023-11-18T11:56:15.704Z,3.88
2023-11-18T11:58:45.386Z,3.45
2023-11-18T12:01:34.819Z,3.67
2023-11-18T12:04:08.055Z,3.72
2023-11-18T12:06:37.183Z,3.10
2023-11-18T12:09:08.408Z,3.47
2023-11-18T12:11:43.042Z,3.17
2023-11-18T12:14:13.881Z,3.20
2023-11-18T12:17:01.951Z,3.03
2023-11-18T12:19:49.194Z,3.40
2023-11-18T12:22:28.049Z,3.50
2023-11-18T12:24:59.027Z,4.10
2023-11-18T12:27:42.082Z,3.00
2023-11-18T12:30:27.771Z,4.30
2023-11-18T12:33:11.328Z,3.92
2023-11-18T12:35:55.677Z,3.90
2023-11-18T12:38:25.655Z,3.42
2023-11-18T12:41:12.402Z,3.80
2023-11-18T12:43:51.390Z,3.10
2023-11-18T12:46:28.841Z,3.65
2023-11-18T12:49:01.077Z,2.97
2023-11-18T12:51:28.525Z,2.92
2023-11-18T12:53:55.872Z,3.20
2023-11-18T12:56:26.161Z,3.58
2023-11-18T12:58:55.133Z,3.47
2023-11-18T13:01:22.682Z,3.05
2023-11-18T13:03:50.298Z,2.97
2023-11-18T13:06:17.816Z,2.95
2023-11-18T13:08:45.320Z,3.15
2023-11-18T13:11:17.468Z,2.67
2023-11-18T13:13:45.110Z,2.63
2023-11-18T13:16:12.585Z,2.90
2023-11-18T13:18:50.523Z,2.60
2023-11-18T13:21:18.563Z,3.45
2023-11-18T13:23:51.283Z,2.67
2023-11-18T13:26:20.518Z,2.83
2023-11-18T13:28:51.310Z,2.35
2023-11-18T13:31:19.368Z,2.78
2023-11-18T13:33:52.669Z,2.45
2023-11-18T13:36:20.323Z,2.20
2023-11-18T13:38:50.395Z,2.60
2023-11-18T13:41:30.660Z,2.28
2023-11-18T13:43:58.206Z,2.80
2023-11-18T13:46:25.964Z,2.22
2023-11-18T13:48:56.348Z,2.03
2023-11-18T13:51:23.917Z,2.20
2023-11-18T13:53:53.693Z,2.67
2023-11-18T13:56:23.237Z,2.20
2023-11-18T13:58:51.096Z,2.20
2023-11-18T14:01:18.481Z,1.75
2023-11-18T14:03:48.799Z,2.03
2023-11-18T14:06:18.602Z,1.60
2023-11-18T14:08:46.073Z,1.90
2023-11-18T14:11:16.772Z,2.30
2023-11-18T14:13:45.769Z,1.90
2023-11-18T14:16:14.138Z,2.05
2023-11-18T14:18:42.979Z,3.38
2023-11-18T14:21:10.995Z,1.90
2023-11-18T14:23:41.389Z,2.22
2023-11-18T14:26:09.074Z,1.98
2023-11-18T14:28:36.568Z,1.77
2023-11-18T14:31:09.104Z,2.13
2023-11-18T14:33:36.537Z,1.88
2023-11-18T14:36:06.474Z,1.75
2023-11-18T14:38:35.378Z,1.80
2023-11-18T14:41:04.024Z,1.75
2023-11-18T14:43:31.454Z,1.95
2023-11-18T14:45:59.099Z,2.35
2023-11-18T14:48:26.546Z,1.88
2023-11-18T14:50:53.869Z,1.30
2023-11-18T14:53:21.241Z,2.20
2023-11-18T14:55:48.600Z,2.50
2023-11-18T14:58:15.973Z,2.20
2023-11-18T15:00:43.930Z,2.15
2023-11-18T15:03:11.458Z,2.40
2023-11-18T15:05:39.654Z,1.95
2023-11-18T15:08:10.802Z,2.17
2023-11-18T15:10:38.519Z,1.90
2023-11-18T15:13:05.836Z,2.10
2023-11-18T15:15:34.855Z,1.98
2023-11-18T15:18:15.630Z,1.90
2023-11-18T15:20:48.340Z,1.73
2023-11-18T15:23:20.046Z,2.25
2023-11-18T15:25:47.408Z,2.97
2023-11-18T15:28:15.420Z,1.48
2023-11-18T15:30:42.885Z,1.92
2023-11-18T15:33:10.776Z,2.08
2023-11-18T15:35:44.770Z,2.10
2023-11-18T15:38:18.904Z,2.38
2023-11-18T15:40:47.375Z,2.22
2023-11-18T15:43:14.868Z,2.30
2023-11-18T15:45:42.144Z,1.85
2023-11-18T15:48:11.278Z,1.98
2023-11-18T15:50:39.275Z,2.55
2023-11-18T15:53:07.351Z,2.90
2023-11-18T15:55:37.276Z,2.22
2023-11-18T15:58:05.269Z,1.70
2023-11-18T16:00:32.961Z,1.90
2023-11-18T16:03:02.926Z,2.47
2023-11-18T16:05:35.653Z,2.28
2023-11-18T16:08:05.558Z,2.28
2023-11-18T16:10:33.661Z,2.67
2023-11-18T16:13:01.795Z,2.22
2023-11-18T16:15:30.579Z,2.05
2023-11-18T16:17:59.080Z,2.25
2023-11-18T16:20:27.831Z,2.35
2023-11-18T16:22:56.162Z,2.53
2023-11-18T16:25:35.424Z,2.67
2023-11-18T16:28:10.022Z,2.22
2023-11-18T16:30:40.244Z,1.90
2023-11-18T16:33:11.059Z,2.33
2023-11-18T16:35:45.949Z,2.28
2023-11-18T16:38:16.181Z,2.63
2023-11-18T16:40:55.020Z,2.38
2023-11-18T16:43:39.433Z,2.97
2023-11-18T16:46:08.468Z,2.90
2023-11-18T16:48:42.399Z,3.13
2023-11-18T16:51:12.651Z,2.63
2023-11-18T16:53:44.986Z,3.70
2023-11-18T16:56:15.016Z,3.95
2023-11-18T16:58:44.337Z,3.38
2023-11-18T17:01:22.711Z,3.15
2023-11-18T17:03:54.147Z,3.83
2023-11-18T17:06:25.108Z,4.53
2023-11-18T17:08:56.225Z,3.83
2023-11-18T17:11:26.600Z,3.80
2023-11-18T17:14:00.068Z,4.78
2023-11-18T17:16:30.531Z,4.00
2023-11-18T17:19:02.713Z,3.92
2023-11-18T17:21:32.703Z,5.10
2023-11-18T17:24:02.109Z,4.78
2023-11-18T17:26:31.669Z,4.95
2023-11-18T17:29:01.279Z,4.55
2023-11-18T17:31:29.586Z,5.85
2023-11-18T17:33:58.243Z,7.00
2023-11-18T17:36:31.885Z,6.40
2023-11-18T17:39:02.369Z,7.35
2023-11-18T17:41:30.619Z,8.27
2023-11-18T17:43:59.650Z,7.97
2023-11-18T17:46:36.828Z,8.90
2023-11-18T17:49:10.207Z,9.02
2023-11-18T17:51:38.814Z,7.35
2023-11-18T17:54:11.414Z,9.32
2023-11-18T17:56:44.376Z,9.77
2023-11-18T17:59:14.917Z,10.45
2023-11-18T18:01:44.230Z,11.00
2023-11-18T18:04:19.514Z,11.48
2023-11-18T18:06:54.919Z,12.95
2023-11-18T18:09:25.946Z,13.27
2023-11-18T18:11:54.521Z,12.82
2023-11-18T18:14:26.146Z,12.75
2023-11-18T18:17:00.128Z,16.38
2023-11-18T18:19:29.179Z,15.38
2023-11-18T18:21:58.075Z,14.48
2023-11-18T18:24:27.986Z,13.43
2023-11-18T18:26:56.018Z,12.20
2023-11-18T18:29:25.494Z,12.15
2023-11-18T18:31:55.372Z,10.82
2023-11-18T18:34:31.452Z,12.50
2023-11-18T18:37:00.209Z,12.88
2023-11-18T18:39:32.703Z,13.13
2023-11-18T18:42:00.633Z,12.88
2023-11-18T18:44:38.652Z,10.32
2023-11-18T18:47:14.653Z,9.43
2023-11-18T18:49:47.225Z,11.75
2023-11-18T18:52:23.021Z,8.20
2023-11-18T18:55:11.481Z,11.68
2023-11-18T18:57:41.576Z,10.57
2023-11-18T19:00:15.516Z,10.55
2023-11-18T19:02:55.290Z,9.13
2023-11-18T19:05:26.642Z,9.85
2023-11-18T19:08:00.459Z,8.20
2023-11-18T19:10:40.593Z,10.30
2023-11-18T19:13:11.549Z,10.90
2023-11-18T19:15:40.184Z,10.73
2023-11-18T19:18:25.930Z,12.27
2023-11-18T19:20:58.766Z,12.30
2023-11-18T19:23:38.812Z,10.85
2023-11-18T19:26:17.045Z,11.93
2023-11-18T19:28:49.236Z,12.10
2023-11-18T19:31:18.994Z,11.52
2023-11-18T19:34:01.388Z,12.47
2023-11-18T19:36:34.345Z,11.45
2023-11-18T19:39:09.873Z,12.23
2023-11-18T19:41:53.824Z,11.95
2023-11-18T19:44:28.588Z,12.25
2023-11-18T19:47:02.127Z,11.70
2023-11-18T19:49:38.674Z,10.77
2023-11-18T19:52:10.153Z,12.13
2023-11-18T19:54:42.238Z,10.27
2023-11-18T19:57:11.613Z,11.63
2023-11-18T19:59:40.812Z,10.53
2023-11-18T20:02:13.174Z,12.27
2023-11-18T20:04:44.779Z,10.82
2023-11-18T20:07:15.444Z,11.45
2023-11-18T20:09:45.009Z,9.57
2023-11-18T20:12:14.464Z,13.20
2023-11-18T20:14:44.274Z,10.40
2023-11-18T20:17:13.090Z,11.88
2023-11-18T20:19:43.397Z,10.27
2023-11-18T20:22:14.282Z,10.00
2023-11-18T20:24:54.869Z,11.25
2023-11-18T20:27:24.782Z,10.63
2023-11-18T20:29:54.664Z,11.88
2023-11-18T20:32:28.732Z,10.68
2023-11-18T20:35:01.275Z,10.02
2023-11-18T20:37:31.322Z,11.13
2023-11-18T20:40:01.706Z,10.25
2023-11-18T20:42:44.531Z,9.70
2023-11-18T20:45:20.097Z,11.32
2023-11-18T20:47:51.018Z,12.27
2023-11-18T20:50:19.009Z,10.83
2023-11-18T20:52:47.052Z,9.43
2023-11-18T20:55:29.060Z,9.48
2023-11-18T20:58:00.543Z,11.32
2023-11-18T21:00:37.682Z,11.10
2023-11-18T21:03:15.048Z,11.80
2023-11-18T21:05:59.129Z,10.65
2023-11-18T21:08:28.559Z,11.15
2023-11-18T21:11:01.226Z,10.00
2023-11-18T21:13:34.312Z,11.00
2023-11-18T21:16:04.025Z,11.10
2023-11-18T21:18:34.066Z,10.20
2023-11-18T21:21:04.477Z,9.82
2023-11-18T21:23:33.407Z,10.00
2023-11-18T21:26:01.319Z,11.35
2023-11-18T21:28:31.133Z,10.57
2023-11-18T21:31:02.419Z,10.43
2023-11-18T21:33:39.595Z,9.70
2023-11-18T21:36:10.812Z,10.70
2023-11-18T21:38:40.685Z,8.45
2023-11-18T21:41:10.562Z,10.03
2023-11-18T21:43:39.349Z,9.93
2023-11-18T21:46:19.967Z,11.13
2023-11-18T21:48:57.103Z,10.30
2023-11-18T21:51:33.171Z,9.00
2023-11-18T21:54:03.718Z,8.27
2023-11-18T21:56:38.734Z,10.15
2023-11-18T21:59:17.641Z,10.68
2023-11-18T22:01:47.242Z,9.73
2023-11-18T22:04:17.203Z,10.40
2023-11-18T22:06:55.283Z,8.93
2023-11-18T22:09:36.633Z,9.25
2023-11-18T22:12:08.815Z,9.32
2023-11-18T22:14:39.467Z,9.07
2023-11-18T22:17:12.162Z,8.80
2023-11-18T22:19:48.485Z,9.63
2023-11-18T22:22:33.920Z,8.65
2023-11-18T22:25:02.460Z,9.55
2023-11-18T22:27:35.207Z,8.20
2023-11-18T22:30:05.565Z,8.32
2023-11-18T22:32:36.196Z,7.53
2023-11-18T22:35:10.658Z,9.48
2023-11-18T22:37:41.499Z,8.32
2023-11-18T22:40:18.778Z,8.55
2023-11-18T22:42:48.941Z,7.53
2023-11-18T22:45:24.526Z,8.00
2023-11-18T22:47:57.639Z,7.65
2023-11-18T22:50:27.928Z,7.50
2023-11-18T22:53:02.208Z,8.80
2023-11-18T22:55:30.230Z,8.15
2023-11-18T22:57:59.866Z,8.03
2023-11-18T23:00:54.716Z,7.22
2023-11-18T23:03:30.115Z,6.93
2023-11-18T23:06:09.975Z,6.38
2023-11-18T23:08:40.686Z,5.88
2023-11-18T23:11:10.125Z,6.60
2023-11-18T23:13:47.493Z,6.03
2023-11-18T23:16:15.738Z,6.18
2023-11-18T23:18:50.131Z,5.57
2023-11-18T23:21:22.927Z,5.35
2023-11-18T23:23:53.924Z,5.47
2023-11-18T23:26:26.292Z,3.83
2023-11-18T23:28:56.607Z,4.20
2023-11-18T23:31:31.796Z,3.85
2023-11-18T23:34:02.334Z,4.22
2023-11-18T23:36:32.217Z,3.83
2023-11-18T23:39:04.660Z,4.30
2023-11-18T23:41:35.591Z,4.00
2023-11-18T23:44:09.614Z,3.97
2023-11-18T23:46:39.206Z,4.07
2023-11-18T23:49:15.594Z,2.90
2023-11-18T23:51:49.418Z,4.43
2023-11-18T23:54:21.633Z,3.63
2023-11-18T23:56:52.213Z,4.30
2023-11-18T23:59:21.854Z,3.90
